Time;durP1;ratioP1;P1;durP2;ratioP2;P2;SDS_P1;SDS_P2;PMS_P1;PMS_P2;Temp;Humidity;BMP_temperature;BMP_pressure;BME280_temperature;BME280_humidity;BME280_pressure;Samples;Min_cycle;Max_cycle;Signal;HPM_P1;HPM_P2
2023/04/03 00:01:28;;;;;;;5.17;3.63;;;5.90;99.90;;;;;;5024267;28;20175;-71
2023/04/03 00:03:54;;;;;;;9.00;4.73;;;5.80;99.90;;;;;;5024529;28;20190;-71
2023/04/03 00:06:20;;;;;;;4.67;4.10;;;5.90;99.90;;;;;;5024246;28;20171;-72
2023/04/03 00:08:45;;;;;;;3.60;3.00;;;6.00;99.90;;;;;;5022732;28;20426;-72
2023/04/03 00:11:11;;;;;;;10.10;5.00;;;6.10;99.90;;;;;;5024250;28;20253;-72
2023/04/03 00:13:38;;;;;;;4.13;3.73;;;6.00;99.90;;;;;;5024381;28;20175;-74
2023/04/03 00:16:04;;;;;;;9.00;5.67;;;6.20;99.90;;;;;;5024614;28;20249;-75
2023/04/03 00:18:30;;;;;;;7.27;4.60;;;6.10;99.90;;;;;;5024066;28;20451;-73
2023/04/03 00:20:55;;;;;;;4.67;3.90;;;5.90;99.90;;;;;;5022841;28;20426;-71
2023/04/03 00:23:23;;;;;;;5.27;3.90;;;6.10;99.90;;;;;;5023962;28;20182;-70
2023/04/03 00:25:49;;;;;;;4.20;3.83;;;6.20;99.90;;;;;;5023990;28;20204;-72
2023/04/03 00:28:15;;;;;;;3.87;3.53;;;6.40;99.90;;;;;;5024101;28;20502;-72
2023/04/03 00:30:40;;;;;;;4.30;3.90;;;6.50;99.90;;;;;;5024052;28;20434;-71
2023/04/03 00:33:06;;;;;;;4.00;3.47;;;6.50;99.90;;;;;;5024003;28;20193;-73
2023/04/03 00:35:33;;;;;;;4.33;3.60;;;6.60;99.90;;;;;;5023620;28;20260;-73
2023/04/03 00:37:59;;;;;;;4.63;3.13;;;6.50;99.90;;;;;;5022856;28;20285;-71
2023/04/03 00:40:26;;;;;;;6.03;3.50;;;6.70;99.90;;;;;;5023341;28;20564;-71
2023/04/03 00:42:56;;;;;;;4.40;4.00;;;6.70;99.90;;;;;;5023709;28;20179;-72
2023/04/03 00:45:40;;;;;;;4.23;3.83;;;6.70;99.90;;;;;;5022208;28;20778;-72
2023/04/03 00:48:09;;;;;;;3.10;2.80;;;6.70;99.90;;;;;;5023432;28;20414;-71
2023/04/03 00:50:38;;;;;;;3.77;3.33;;;6.40;99.90;;;;;;5023654;28;20414;-72
2023/04/03 00:53:06;;;;;;;4.20;3.63;;;6.20;99.90;;;;;;5023087;28;20493;-71
2023/04/03 00:55:32;;;;;;;4.33;3.70;;;6.10;99.90;;;;;;5023590;28;20575;-72
2023/04/03 00:57:59;;;;;;;6.63;4.10;;;6.10;99.90;;;;;;5023740;28;20536;-72
2023/04/03 01:00:25;;;;;;;3.80;3.50;;;6.00;99.90;;;;;;5023361;28;20697;-71
2023/04/03 01:02:51;;;;;;;4.00;3.70;;;6.10;99.90;;;;;;5023699;28;20414;-73
2023/04/03 01:05:19;;;;;;;3.80;3.50;;;5.80;99.90;;;;;;5022907;28;20422;-72
2023/04/03 01:07:45;;;;;;;3.87;3.57;;;5.90;99.90;;;;;;5022898;28;20414;-72
2023/04/03 01:10:14;;;;;;;4.57;4.10;;;6.00;99.90;;;;;;5023149;28;20425;-74
2023/04/03 01:12:42;;;;;;;5.37;4.87;;;6.10;99.90;;;;;;5023237;28;20422;-72
2023/04/03 01:15:11;;;;;;;4.00;3.40;;;6.10;99.90;;;;;;5022828;28;20527;-72
2023/04/03 01:17:42;;;;;;;3.90;3.40;;;5.90;99.90;;;;;;5022830;28;20816;-72
2023/04/03 01:20:35;;;;;;;4.17;3.43;;;6.00;99.90;;;;;;5022438;28;20884;-73
2023/04/03 01:23:10;;;;;;;4.70;4.30;;;6.00;99.90;;;;;;5021961;28;20406;-73
2023/04/03 01:25:39;;;;;;;5.63;3.60;;;6.00;99.90;;;;;;5022702;28;20437;-72
2023/04/03 01:28:06;;;;;;;4.07;3.67;;;6.10;99.90;;;;;;5021415;28;20425;-70
2023/04/03 01:30:36;;;;;;;4.10;3.70;;;6.00;99.90;;;;;;5023253;28;20790;-74
2023/04/03 01:33:02;;;;;;;4.50;3.80;;;6.20;99.90;;;;;;5021689;28;20426;-72
2023/04/03 01:35:28;;;;;;;4.20;3.57;;;6.40;99.90;;;;;;5022920;28;20473;-72
2023/04/03 01:37:53;;;;;;;3.87;3.50;;;6.00;99.90;;;;;;5022319;28;21270;-74
2023/04/03 01:40:19;;;;;;;4.20;3.80;;;5.90;99.90;;;;;;5023042;28;20716;-72
2023/04/03 01:42:45;;;;;;;4.10;3.70;;;6.00;99.90;;;;;;5022760;28;20210;-73
2023/04/03 01:45:10;;;;;;;5.07;4.07;;;5.80;99.90;;;;;;5022223;28;20343;-72
2023/04/03 01:47:36;;;;;;;5.10;3.57;;;5.90;99.90;;;;;;5022736;28;20185;-72
2023/04/03 01:50:02;;;;;;;4.30;3.87;;;5.90;99.90;;;;;;5022977;28;20185;-74
2023/04/03 01:52:28;;;;;;;5.03;4.47;;;5.60;99.90;;;;;;5022181;28;20179;-75
2023/04/03 01:54:53;;;;;;;4.37;3.97;;;5.60;99.90;;;;;;5022916;28;20789;-77
2023/04/03 01:57:19;;;;;;;4.60;4.20;;;5.90;99.90;;;;;;5022574;28;20198;-74
2023/04/03 01:59:44;;;;;;;4.83;4.23;;;6.10;99.90;;;;;;5022329;28;20180;-72
2023/04/03 02:02:12;;;;;;;4.63;4.23;;;6.20;99.90;;;;;;5023242;28;20180;-75
2023/04/03 02:04:37;;;;;;;3.80;3.37;;;6.30;99.90;;;;;;5022942;28;20203;-72
2023/04/03 02:07:03;;;;;;;5.23;4.73;;;6.30;99.90;;;;;;5025159;28;20423;-72
2023/04/03 02:09:29;;;;;;;8.30;5.77;;;6.40;99.90;;;;;;5026194;28;20506;-72
2023/04/03 02:11:54;;;;;;;7.50;5.47;;;6.20;99.90;;;;;;5026824;28;20180;-73
2023/04/03 02:14:21;;;;;;;5.00;4.50;;;6.40;99.90;;;;;;5026286;28;20492;-71
2023/04/03 02:16:47;;;;;;;4.67;4.10;;;6.40;99.90;;;;;;5026444;28;20492;-76
2023/04/03 02:19:12;;;;;;;7.47;5.07;;;6.30;99.90;;;;;;5024286;28;20447;-72
2023/04/03 02:21:38;;;;;;;6.47;5.20;;;6.40;99.90;;;;;;5026130;28;20176;-71
2023/04/03 02:24:04;;;;;;;4.10;3.80;;;6.20;99.90;;;;;;5024420;28;20182;-72
2023/04/03 02:26:29;;;;;;;4.57;3.70;;;6.10;99.90;;;;;;5026232;28;20323;-70
2023/04/03 02:28:55;;;;;;;4.87;4.47;;;6.10;99.90;;;;;;5025090;28;20183;-71
2023/04/03 02:31:20;;;;;;;4.57;3.40;;;6.10;99.90;;;;;;5024277;28;20187;-74
2023/04/03 02:33:46;;;;;;;4.17;3.60;;;6.10;99.90;;;;;;5026516;28;20215;-72
2023/04/03 02:36:11;;;;;;;3.73;3.33;;;6.10;99.90;;;;;;5025486;28;20302;-72
2023/04/03 02:38:37;;;;;;;3.70;3.40;;;6.00;99.90;;;;;;5022892;28;20198;-72
2023/04/03 02:41:05;;;;;;;8.43;3.73;;;6.10;99.90;;;;;;5026086;28;20179;-72
2023/04/03 02:43:31;;;;;;;6.23;3.53;;;6.10;99.90;;;;;;5025378;28;20630;-72
2023/04/03 02:45:57;;;;;;;4.33;3.90;;;6.00;99.90;;;;;;5025107;28;20491;-72
2023/04/03 02:48:23;;;;;;;3.60;3.30;;;6.10;99.90;;;;;;5025103;28;20268;-74
2023/04/03 02:50:49;;;;;;;3.73;3.43;;;6.40;99.90;;;;;;5025953;28;20665;-75
2023/04/03 02:53:15;;;;;;;4.20;3.80;;;6.30;99.90;;;;;;5024968;28;20425;-76
2023/04/03 02:55:41;;;;;;;4.50;4.10;;;6.40;99.90;;;;;;5025414;28;20482;-71
2023/04/03 02:58:07;;;;;;;5.30;4.43;;;6.50;99.90;;;;;;5025173;28;20445;-70
2023/04/03 03:00:33;;;;;;;3.73;3.53;;;6.50;99.90;;;;;;5024901;28;20426;-72
2023/04/03 03:02:58;;;;;;;4.03;3.63;;;6.40;99.90;;;;;;5025910;28;20642;-72
2023/04/03 03:05:24;;;;;;;4.83;4.43;;;6.50;99.90;;;;;;5024562;28;20547;-71
2023/04/03 03:07:49;;;;;;;4.53;4.00;;;6.40;99.90;;;;;;5024990;28;20549;-72
2023/04/03 03:10:15;;;;;;;4.23;3.80;;;6.20;99.90;;;;;;5024914;28;20687;-72
2023/04/03 03:12:41;;;;;;;4.70;3.87;;;6.20;99.90;;;;;;5025465;28;20179;-72
2023/04/03 03:15:07;;;;;;;4.83;4.13;;;6.20;99.90;;;;;;5025428;28;20229;-71
2023/04/03 03:17:33;;;;;;;4.20;3.90;;;5.90;99.90;;;;;;5023990;28;20200;-72
2023/04/03 03:19:59;;;;;;;4.50;4.10;;;5.60;99.90;;;;;;5024585;28;20421;-72
2023/04/03 03:22:26;;;;;;;5.00;3.40;;;5.50;99.90;;;;;;5024543;28;20411;-72
2023/04/03 03:24:51;;;;;;;3.83;3.50;;;5.70;99.90;;;;;;5040563;23;20665;-72
2023/04/03 03:27:17;;;;;;;3.77;3.47;;;5.70;99.90;;;;;;5025344;28;20426;-71
2023/04/03 03:29:42;;;;;;;3.57;3.13;;;5.90;99.90;;;;;;5024654;28;20617;-73
2023/04/03 03:32:08;;;;;;;3.40;3.10;;;6.00;99.90;;;;;;5024304;28;20186;-72
2023/04/03 03:34:34;;;;;;;3.47;3.17;;;6.00;99.90;;;;;;5022165;28;20684;-72
2023/04/03 03:37:00;;;;;;;3.93;3.53;;;6.00;99.90;;;;;;5017682;28;20637;-70
2023/04/03 03:39:26;;;;;;;4.53;3.30;;;6.10;99.90;;;;;;5021936;28;20426;-71
2023/04/03 03:41:53;;;;;;;4.43;3.30;;;6.10;99.90;;;;;;5009797;28;20199;-72
2023/04/03 03:44:19;;;;;;;5.90;3.60;;;6.00;99.90;;;;;;5005617;28;20982;-71
2023/04/03 03:46:45;;;;;;;4.33;3.20;;;6.00;99.90;;;;;;5019890;28;21081;-75
2023/04/03 03:49:11;;;;;;;3.83;3.53;;;6.30;99.90;;;;;;5024000;28;20639;-75
2023/04/03 03:51:37;;;;;;;3.20;2.90;;;6.30;99.90;;;;;;5015097;28;20174;-73
2023/04/03 03:54:03;;;;;;;6.50;4.60;;;6.50;99.90;;;;;;5004056;28;20960;-73
2023/04/03 03:56:29;;;;;;;4.07;3.67;;;6.50;99.90;;;;;;5020035;28;20499;-75
2023/04/03 03:58:56;;;;;;;4.10;3.60;;;6.30;99.90;;;;;;5011621;28;20449;-74
2023/04/03 04:01:22;;;;;;;6.43;4.37;;;6.00;99.90;;;;;;5011529;28;20185;-73
2023/04/03 04:03:47;;;;;;;5.87;3.10;;;5.60;99.90;;;;;;5024807;28;20916;-74
2023/04/03 04:06:14;;;;;;;3.97;3.60;;;5.50;99.90;;;;;;5020043;28;20438;-75
2023/04/03 04:08:39;;;;;;;5.03;3.53;;;5.50;99.90;;;;;;5006788;28;20197;-72
2023/04/03 04:11:05;;;;;;;4.80;3.70;;;5.50;99.90;;;;;;5020367;28;20415;-73
2023/04/03 04:13:30;;;;;;;4.60;3.70;;;5.50;99.90;;;;;;5024282;28;20189;-74
2023/04/03 04:15:56;;;;;;;3.87;3.50;;;5.50;99.90;;;;;;5004993;28;20210;-73
2023/04/03 04:18:22;;;;;;;3.50;3.20;;;5.60;99.90;;;;;;5022644;28;20216;-71
2023/04/03 04:20:48;;;;;;;4.10;3.70;;;5.70;99.90;;;;;;5022459;28;20234;-74
2023/04/03 04:23:14;;;;;;;4.50;3.47;;;5.80;99.90;;;;;;5024710;28;20429;-73
2023/04/03 04:25:40;;;;;;;4.90;4.13;;;5.80;99.90;;;;;;5004682;28;20490;-74
2023/04/03 04:28:06;;;;;;;3.93;3.63;;;5.50;99.90;;;;;;5006356;28;20249;-73
2023/04/03 04:30:31;;;;;;;7.10;4.10;;;5.70;99.90;;;;;;5008954;28;20510;-74
2023/04/03 04:32:57;;;;;;;4.87;4.37;;;5.70;99.90;;;;;;5016038;28;20490;-74
2023/04/03 04:35:23;;;;;;;4.40;3.53;;;5.70;99.90;;;;;;5009675;28;20293;-74
2023/04/03 04:37:48;;;;;;;4.73;3.43;;;5.80;99.90;;;;;;5018833;28;20208;-74
2023/04/03 04:40:14;;;;;;;3.47;3.17;;;5.80;99.90;;;;;;5013335;28;20183;-74
2023/04/03 04:42:40;;;;;;;4.20;3.60;;;5.90;99.90;;;;;;5023108;28;20187;-74
2023/04/03 04:45:06;;;;;;;3.97;3.57;;;5.90;99.90;;;;;;5021797;28;20940;-73
2023/04/03 04:47:31;;;;;;;4.83;3.60;;;5.80;99.90;;;;;;5023211;28;20183;-74
2023/04/03 04:49:57;;;;;;;4.27;3.87;;;5.90;99.90;;;;;;5018175;28;20418;-73
2023/04/03 04:52:22;;;;;;;6.73;3.60;;;5.90;99.90;;;;;;5012693;28;20178;-73
2023/04/03 04:54:48;;;;;;;3.63;3.20;;;5.80;99.90;;;;;;5012165;28;20209;-72
2023/04/03 04:57:13;;;;;;;4.80;3.80;;;5.90;99.90;;;;;;5024570;28;20221;-73
2023/04/03 04:59:39;;;;;;;3.60;3.30;;;5.90;99.90;;;;;;5021908;28;20179;-73
2023/04/03 05:02:04;;;;;;;3.27;2.97;;;6.10;99.90;;;;;;5024628;28;20701;-74
2023/04/03 05:04:30;;;;;;;4.33;3.53;;;6.00;99.90;;;;;;5019029;28;20187;-74
2023/04/03 05:06:56;;;;;;;5.80;3.50;;;6.00;99.90;;;;;;5023085;28;20179;-74
2023/04/03 05:09:22;;;;;;;6.10;3.40;;;6.00;99.90;;;;;;5021559;28;20187;-73
2023/04/03 05:11:47;;;;;;;4.37;3.30;;;6.20;99.90;;;;;;5009882;28;20182;-73
2023/04/03 05:14:13;;;;;;;3.60;3.03;;;6.20;99.90;;;;;;5020735;28;20518;-71
2023/04/03 05:16:38;;;;;;;3.83;3.50;;;6.30;99.90;;;;;;5011935;28;20180;-74
2023/04/03 05:19:04;;;;;;;4.67;2.90;;;6.20;99.90;;;;;;5008363;28;20203;-72
2023/04/03 05:21:32;;;;;;;3.93;3.30;;;6.20;99.90;;;;;;5011161;28;20696;-73
2023/04/03 05:23:59;;;;;;;3.63;3.10;;;6.20;99.90;;;;;;5011858;28;20636;-73
2023/04/03 05:26:25;;;;;;;4.53;2.97;;;6.30;99.90;;;;;;5014748;28;20449;-73
2023/04/03 05:28:51;;;;;;;3.50;3.20;;;6.30;99.90;;;;;;5016609;28;21196;-73
2023/04/03 05:31:17;;;;;;;5.33;3.20;;;6.10;99.90;;;;;;5006907;28;20427;-76
2023/04/03 05:33:42;;;;;;;4.27;3.00;;;6.10;99.90;;;;;;5012234;28;20237;-71
2023/04/03 05:36:08;;;;;;;3.93;3.57;;;5.70;99.90;;;;;;5010902;28;20204;-74
2023/04/03 05:38:34;;;;;;;4.83;3.37;;;5.60;99.90;;;;;;5012842;28;20195;-74
2023/04/03 05:40:59;;;;;;;3.60;3.30;;;5.50;99.90;;;;;;5011915;28;20730;-72
2023/04/03 05:43:25;;;;;;;3.50;3.20;;;5.30;99.90;;;;;;5014310;28;20542;-74
2023/04/03 05:45:51;;;;;;;3.87;3.47;;;5.40;99.90;;;;;;5016411;28;20686;-74
2023/04/03 05:48:18;;;;;;;4.00;3.60;;;5.50;99.90;;;;;;5012741;28;20334;-74
2023/04/03 05:50:44;;;;;;;5.73;3.70;;;5.50;99.90;;;;;;5026092;28;20504;-74
2023/04/03 05:53:27;;;;;;;3.90;3.50;;;5.40;99.90;;;;;;5013234;28;20184;-74
2023/04/03 05:55:53;;;;;;;6.47;4.57;;;5.30;99.90;;;;;;5015170;28;20203;-71
2023/04/03 05:58:19;;;;;;;5.87;4.77;;;5.10;99.90;;;;;;5013599;28;20892;-73
2023/04/03 06:00:45;;;;;;;6.37;3.77;;;5.20;99.90;;;;;;5007571;28;20738;-72
2023/04/03 06:03:11;;;;;;;5.07;4.30;;;5.20;99.90;;;;;;5006388;28;20180;-73
2023/04/03 06:05:36;;;;;;;4.17;3.30;;;5.30;99.90;;;;;;5020309;28;20199;-74
2023/04/03 06:08:03;;;;;;;5.17;4.03;;;5.10;99.90;;;;;;5006304;28;20428;-73
2023/04/03 06:10:28;;;;;;;7.20;4.30;;;5.10;99.90;;;;;;5014506;28;20176;-73
2023/04/03 06:12:54;;;;;;;4.57;3.80;;;5.20;99.90;;;;;;5021230;28;20487;-72
2023/04/03 06:15:20;;;;;;;9.47;4.50;;;5.30;99.90;;;;;;5024687;28;20207;-72
2023/04/03 06:17:46;;;;;;;6.00;5.17;;;5.40;99.90;;;;;;5026555;28;20199;-71
2023/04/03 06:20:13;;;;;;;3.90;3.60;;;5.50;99.90;;;;;;5013993;28;20481;-75
2023/04/03 06:22:39;;;;;;;4.43;3.60;;;5.50;99.90;;;;;;5022820;28;20180;-76
2023/04/03 06:25:06;;;;;;;4.10;3.40;;;5.40;99.90;;;;;;5011897;28;20514;-72
2023/04/03 06:27:31;;;;;;;3.50;3.20;;;5.30;99.90;;;;;;5009967;28;20802;-74
2023/04/03 06:29:57;;;;;;;7.17;4.50;;;5.40;99.90;;;;;;5017188;28;20533;-75
2023/04/03 06:32:23;;;;;;;3.33;3.03;;;5.30;99.90;;;;;;5007875;28;20272;-74
2023/04/03 06:34:48;;;;;;;5.93;4.10;;;5.50;99.90;;;;;;5011222;28;20286;-72
2023/04/03 06:37:20;;;;;;;4.43;3.70;;;5.40;99.90;;;;;;5016598;28;20672;-73
2023/04/03 06:39:46;;;;;;;3.67;3.37;;;5.40;99.90;;;;;;5017538;28;20933;-71
2023/04/03 06:42:12;;;;;;;4.83;3.27;;;5.40;99.90;;;;;;5013048;28;20920;-74
2023/04/03 06:44:37;;;;;;;9.03;4.43;;;5.40;99.90;;;;;;5004608;28;20789;-74
2023/04/03 06:47:03;;;;;;;5.13;3.47;;;5.60;99.90;;;;;;5017087;28;20257;-73
2023/04/03 06:49:29;;;;;;;5.07;3.77;;;5.50;99.90;;;;;;5009106;28;20274;-72
2023/04/03 06:51:56;;;;;;;3.33;3.03;;;5.60;99.90;;;;;;5007502;28;20670;-73
2023/04/03 06:54:22;;;;;;;4.13;3.70;;;5.60;99.90;;;;;;5008730;28;21096;-74
2023/04/03 06:56:48;;;;;;;5.13;4.00;;;5.50;99.90;;;;;;5012041;28;20414;-74
2023/04/03 06:59:14;;;;;;;4.40;3.53;;;5.50;99.90;;;;;;5008672;28;20451;-74
2023/04/03 07:01:40;;;;;;;5.43;3.10;;;5.50;99.90;;;;;;5011680;28;20426;-72
2023/04/03 07:04:06;;;;;;;8.00;4.90;;;5.80;99.90;;;;;;5022057;28;20794;-74
2023/04/03 07:06:33;;;;;;;6.17;3.60;;;5.90;99.90;;;;;;5022193;28;20446;-71
2023/04/03 07:08:59;;;;;;;5.17;3.90;;;5.50;99.90;;;;;;5012339;28;20187;-72
2023/04/03 07:11:26;;;;;;;9.90;5.30;;;5.60;99.90;;;;;;5005085;28;20426;-72
2023/04/03 07:13:52;;;;;;;4.70;3.70;;;5.60;99.90;;;;;;5008809;28;20422;-72
2023/04/03 07:16:18;;;;;;;3.50;3.20;;;5.70;99.90;;;;;;5011148;28;20456;-74
2023/04/03 07:18:44;;;;;;;4.33;3.93;;;5.70;99.90;;;;;;5023940;28;20524;-72
2023/04/03 07:21:10;;;;;;;4.23;3.30;;;5.70;99.90;;;;;;5011073;28;20782;-74
2023/04/03 07:23:35;;;;;;;4.40;3.50;;;5.90;99.90;;;;;;5018160;28;20420;-73
2023/04/03 07:26:01;;;;;;;7.20;4.60;;;5.90;99.90;;;;;;5021603;28;20223;-73
2023/04/03 07:28:27;;;;;;;3.27;2.93;;;5.70;99.90;;;;;;5015263;28;20177;-72
2023/04/03 07:31:00;;;;;;;5.27;3.93;;;5.70;99.90;;;;;;5006086;28;20477;-72
2023/04/03 07:33:26;;;;;;;3.70;3.40;;;5.70;99.90;;;;;;5026466;28;20698;-73
2023/04/03 07:35:51;;;;;;;6.20;3.80;;;5.80;99.90;;;;;;5023615;28;20442;-74
2023/04/03 07:38:18;;;;;;;4.77;3.47;;;6.10;99.90;;;;;;5013304;28;20463;-72
2023/04/03 07:40:48;;;;;;;4.60;3.50;;;6.00;99.90;;;;;;5005025;28;21273;-71
2023/04/03 07:43:15;;;;;;;3.97;3.10;;;6.00;99.90;;;;;;5004308;28;20430;-70
2023/04/03 07:45:41;;;;;;;6.20;3.73;;;6.20;99.90;;;;;;5005816;28;20477;-75
2023/04/03 07:48:07;;;;;;;4.80;3.90;;;6.10;99.90;;;;;;5008115;28;20443;-74
2023/04/03 07:50:33;;;;;;;5.70;4.40;;;6.30;99.90;;;;;;5020907;28;20183;-75
2023/04/03 07:52:59;;;;;;;6.23;4.60;;;6.40;99.90;;;;;;5014565;28;20419;-74
2023/04/03 07:55:25;;;;;;;6.40;3.30;;;6.50;99.90;;;;;;5013372;28;20206;-74
2023/04/03 07:57:51;;;;;;;3.63;3.27;;;6.60;99.90;;;;;;5021724;28;20458;-73
2023/04/03 08:00:19;;;;;;;3.40;3.10;;;6.70;99.90;;;;;;5018945;28;20426;-73
2023/04/03 08:02:51;;;;;;;3.97;3.67;;;6.60;99.90;;;;;;5016482;28;20180;-73
2023/04/03 08:05:18;;;;;;;5.33;3.87;;;6.20;99.90;;;;;;5012512;28;20449;-73
2023/04/03 08:07:44;;;;;;;4.57;3.37;;;6.50;99.90;;;;;;5005086;28;20848;-73
2023/04/03 08:10:09;;;;;;;3.73;3.00;;;6.70;99.90;;;;;;5005195;28;20407;-74
2023/04/03 08:12:36;;;;;;;4.80;2.90;;;6.90;99.90;;;;;;5010123;28;20454;-74
2023/04/03 08:15:03;;;;;;;4.23;3.30;;;6.70;99.90;;;;;;5004901;28;20218;-73
2023/04/03 08:17:29;;;;;;;6.70;3.37;;;6.90;99.90;;;;;;5021264;28;20464;-71
2023/04/03 08:19:55;;;;;;;4.50;3.00;;;7.10;99.90;;;;;;5008840;28;20457;-74
2023/04/03 08:22:20;;;;;;;6.70;3.60;;;7.10;99.90;;;;;;5016033;28;20949;-73
2023/04/03 08:24:46;;;;;;;3.87;3.00;;;7.10;99.90;;;;;;5002679;28;20204;-74
2023/04/03 08:27:12;;;;;;;6.13;3.93;;;6.90;99.90;;;;;;5010713;28;20654;-73
2023/04/03 08:29:37;;;;;;;5.63;3.60;;;6.60;99.90;;;;;;5021801;28;20218;-73
2023/04/03 08:32:04;;;;;;;6.93;4.13;;;6.70;99.90;;;;;;5018481;28;20169;-73
2023/04/03 08:34:34;;;;;;;6.33;3.50;;;6.70;99.90;;;;;;5018354;28;20900;-75
2023/04/03 08:37:00;;;;;;;4.80;3.50;;;6.70;99.90;;;;;;5023637;28;20436;-72
2023/04/03 08:39:27;;;;;;;4.33;3.90;;;6.80;99.90;;;;;;5009133;28;20455;-74
2023/04/03 08:41:59;;;;;;;4.20;3.10;;;6.50;99.90;;;;;;5021260;28;20410;-74
2023/04/03 08:44:42;;;;;;;6.90;3.87;;;6.50;99.90;;;;;;5018115;28;20932;-74
2023/04/03 08:47:25;;;;;;;3.43;3.13;;;6.60;99.90;;;;;;5014550;28;20425;-73
2023/04/03 08:50:00;;;;;;;4.17;3.77;;;6.60;99.90;;;;;;5012504;28;20577;-73
2023/04/03 08:52:35;;;;;;;4.27;3.73;;;6.70;99.90;;;;;;5007948;28;20437;-74
2023/04/03 08:55:05;;;;;;;3.67;3.13;;;6.60;99.90;;;;;;5006425;28;20857;-74
2023/04/03 08:57:39;;;;;;;3.87;3.47;;;6.70;99.90;;;;;;5005445;28;20455;-74
2023/04/03 09:00:28;;;;;;;7.17;5.00;;;6.90;99.90;;;;;;5011100;28;20415;-73
2023/04/03 09:02:55;;;;;;;3.50;3.20;;;6.90;99.90;;;;;;5009843;28;20438;-72
2023/04/03 09:05:42;;;;;;;6.67;4.07;;;7.10;99.90;;;;;;5012750;28;20430;-73
2023/04/03 09:08:28;;;;;;;3.03;2.73;;;7.10;99.90;;;;;;5024984;28;20893;-71
2023/04/03 09:11:33;;;;;;;3.73;3.43;;;7.20;99.90;;;;;;5013426;28;21050;-71
2023/04/03 09:13:58;;;;;;;3.20;2.90;;;7.40;99.90;;;;;;5001612;28;20432;-75
2023/04/03 09:16:42;;;;;;;7.17;3.37;;;7.40;99.90;;;;;;5008149;28;20447;-74
2023/04/03 09:19:28;;;;;;;4.00;3.60;;;7.40;99.90;;;;;;5023356;28;20203;-74
2023/04/03 09:22:11;;;;;;;4.50;3.07;;;7.40;99.90;;;;;;5006905;28;20459;-73
2023/04/03 09:24:37;;;;;;;3.37;2.70;;;7.20;99.90;;;;;;5011549;28;20458;-73
2023/04/03 09:27:09;;;;;;;6.07;3.30;;;7.20;99.90;;;;;;5002160;28;20649;-74
2023/04/03 09:29:39;;;;;;;5.27;2.93;;;7.50;99.90;;;;;;5004130;28;20422;-74
2023/04/03 09:32:25;;;;;;;5.90;3.60;;;7.50;99.90;;;;;;5005275;28;20775;-73
2023/04/03 11:02:39;;;;;;;4.30;2.80;;;6.50;99.90;;;;;;5129922;27;20818;-70
2023/04/03 11:05:27;;;;;;;4.67;2.63;;;7.60;99.90;;;;;;5129004;28;21005;-71
2023/04/03 11:07:57;;;;;;;4.67;3.03;;;7.50;99.90;;;;;;5132182;28;20846;-71
2023/04/03 11:10:40;;;;;;;4.07;3.30;;;7.70;99.90;;;;;;5112956;28;20433;-71
2023/04/03 11:13:57;;;;;;;2.83;2.60;;;7.80;99.90;;;;;;5113015;28;20765;-71
2023/04/03 11:16:26;;;;;;;5.60;2.70;;;7.80;99.90;;;;;;5028278;28;20421;-71
2023/04/03 11:19:13;;;;;;;3.00;2.70;;;8.00;99.90;;;;;;5027125;28;20514;-71
2023/04/03 11:21:48;;;;;;;4.40;2.53;;;8.30;99.70;;;;;;5080432;28;20442;-71
2023/04/03 11:24:26;;;;;;;4.70;2.87;;;8.50;99.90;;;;;;5111067;28;20385;-71
2023/04/03 11:26:54;;;;;;;4.57;2.70;;;8.50;98.90;;;;;;5110612;28;20845;-71
2023/04/03 11:29:24;;;;;;;3.70;2.30;;;8.50;98.70;;;;;;5110439;28;20409;-71
2023/04/03 11:31:53;;;;;;;3.27;2.27;;;8.70;98.60;;;;;;5092061;28;20464;-71
2023/04/03 11:34:43;;;;;;;3.20;2.37;;;8.60;98.20;;;;;;5110086;28;20415;-70
2023/04/03 11:37:43;;;;;;;3.10;2.47;;;8.40;98.40;;;;;;5109305;28;20611;-71
2023/04/03 11:40:27;;;;;;;3.80;2.40;;;8.20;99.10;;;;;;5106296;28;20514;-70
2023/04/03 11:43:16;;;;;;;6.10;3.00;;;8.10;99.50;;;;;;5110266;28;20409;-70
2023/04/03 11:46:06;;;;;;;3.23;2.93;;;8.10;99.50;;;;;;5110529;28;20383;-69
2023/04/03 11:48:35;;;;;;;3.90;2.13;;;7.90;99.50;;;;;;5118783;28;20412;-71
2023/04/03 11:51:02;;;;;;;2.70;2.30;;;7.60;99.80;;;;;;5112082;28;20435;-70
2023/04/03 11:53:37;;;;;;;2.80;2.50;;;7.60;99.90;;;;;;5130566;28;20434;-70
2023/04/03 11:56:27;;;;;;;4.40;2.30;;;7.80;99.90;;;;;;5112241;28;20430;-70
2023/04/03 11:59:14;;;;;;;2.53;2.30;;;7.90;99.80;;;;;;5130505;28;20405;-70
2023/04/03 12:01:45;;;;;;;2.90;1.90;;;8.10;99.50;;;;;;5122032;28;20421;-70
2023/04/03 12:04:15;;;;;;;2.50;1.93;;;7.90;98.50;;;;;;5116611;28;20453;-70
2023/04/03 12:06:40;;;;;;;4.97;3.80;;;7.70;98.80;;;;;;5116571;28;20396;-70
2023/04/03 12:09:27;;;;;;;4.30;2.57;;;7.70;99.00;;;;;;5094183;28;20422;-70
2023/04/03 12:11:53;;;;;;;3.30;2.30;;;7.80;99.00;;;;;;5095991;28;20195;-69
2023/04/03 12:14:24;;;;;;;2.63;2.43;;;7.80;98.90;;;;;;5096675;28;20403;-70
2023/04/03 12:16:51;;;;;;;3.80;2.90;;;7.80;99.40;;;;;;5077833;28;20408;-69
2023/04/03 12:19:40;;;;;;;3.97;2.60;;;7.80;99.50;;;;;;5095840;28;20975;-69
2023/04/03 12:22:08;;;;;;;3.63;2.67;;;8.00;99.40;;;;;;5078097;28;20431;-71
2023/04/03 12:24:40;;;;;;;2.80;2.07;;;8.30;98.90;;;;;;5095617;28;20416;-70
2023/04/03 12:27:24;;;;;;;4.00;2.60;;;8.00;98.50;;;;;;5096366;28;20378;-71
2023/04/03 12:30:13;;;;;;;4.20;2.40;;;8.00;98.60;;;;;;5096350;28;20451;-71
2023/04/03 12:32:58;;;;;;;2.83;2.63;;;7.90;98.90;;;;;;5097118;28;20439;-71
2023/04/03 12:35:23;;;;;;;3.23;2.17;;;8.10;98.80;;;;;;5097410;28;20390;-71
2023/04/03 12:38:08;;;;;;;4.53;2.70;;;8.10;98.50;;;;;;5096959;28;20413;-71
2023/04/03 12:40:42;;;;;;;5.13;2.50;;;8.40;98.50;;;;;;5096249;28;20192;-71
2023/04/03 12:43:29;;;;;;;6.60;2.70;;;8.60;98.30;;;;;;5107969;23;20519;-71
2023/04/03 12:46:18;;;;;;;3.73;2.27;;;8.30;97.90;;;;;;5094268;28;20395;-71
2023/04/03 12:48:55;;;;;;;3.83;2.10;;;8.40;97.70;;;;;;5093766;28;20387;-72
2023/04/03 12:51:28;;;;;;;5.60;2.77;;;8.50;97.00;;;;;;5093879;28;20371;-71
2023/04/03 12:54:01;;;;;;;2.90;2.40;;;8.60;96.60;;;;;;5073092;28;20426;-71
2023/04/03 12:56:29;;;;;;;2.80;2.30;;;8.80;96.10;;;;;;5071652;28;20386;-70
2023/04/03 12:59:16;;;;;;;4.17;2.50;;;8.50;96.80;;;;;;5073260;28;20415;-71
2023/04/03 13:01:41;;;;;;;2.50;2.00;;;8.20;97.20;;;;;;5055270;28;20475;-70
2023/04/03 13:04:12;;;;;;;3.33;2.20;;;8.00;97.40;;;;;;5073334;28;20444;-71
2023/04/03 13:06:42;;;;;;;2.50;2.30;;;8.00;97.20;;;;;;5073991;28;20604;-71
2023/04/03 13:09:29;;;;;;;3.03;2.37;;;8.00;97.30;;;;;;5073003;28;20445;-70
2023/04/03 13:12:12;;;;;;;2.70;2.40;;;8.90;96.90;;;;;;5073147;28;20756;-71
2023/04/03 13:14:37;;;;;;;3.53;2.20;;;10.90;94.90;;;;;;5072480;28;20403;-71
2023/04/03 13:17:12;;;;;;;2.73;2.17;;;11.50;91.90;;;;;;5072537;28;20426;-70
2023/04/03 13:19:38;;;;;;;2.93;2.17;;;11.30;91.20;;;;;;5073384;28;20627;-72
2023/04/03 13:22:38;;;;;;;2.90;2.27;;;10.50;90.90;;;;;;5072892;28;20430;-70
2023/04/03 13:25:08;;;;;;;3.30;2.07;;;10.00;91.40;;;;;;5054497;28;20419;-71
2023/04/03 13:27:34;;;;;;;3.97;2.20;;;10.10;91.50;;;;;;5072934;28;20404;-70
2023/04/03 13:30:04;;;;;;;4.30;2.20;;;10.00;91.20;;;;;;5073043;28;20414;-71
2023/04/03 13:32:31;;;;;;;2.80;1.90;;;9.70;92.00;;;;;;5070912;28;20204;-72
2023/04/03 13:34:57;;;;;;;3.03;2.47;;;9.80;92.10;;;;;;5072813;28;20756;-71
2023/04/03 13:37:27;;;;;;;2.37;2.13;;;9.60;92.40;;;;;;5072561;28;20418;-71
2023/04/03 13:40:10;;;;;;;3.17;2.30;;;9.40;92.70;;;;;;5072091;28;20552;-71
2023/04/03 13:42:40;;;;;;;4.70;2.30;;;9.00;91.90;;;;;;5072210;28;20866;-71
2023/04/03 13:45:21;;;;;;;3.13;2.63;;;9.10;92.50;;;;;;5054236;28;20772;-71
2023/04/03 13:47:48;;;;;;;4.90;2.50;;;9.30;92.40;;;;;;5072388;28;20792;-71
2023/04/03 13:50:16;;;;;;;2.70;2.33;;;9.90;91.70;;;;;;5071901;28;20751;-72
2023/04/03 13:53:01;;;;;;;4.40;2.43;;;10.10;90.40;;;;;;5072251;28;20458;-72
2023/04/03 13:55:36;;;;;;;4.23;2.30;;;10.00;90.10;;;;;;5053741;28;20443;-72
2023/04/03 13:58:07;;;;;;;2.60;2.40;;;10.10;90.20;;;;;;5054055;28;20884;-71
2023/04/03 14:01:09;;;;;;;3.37;2.60;;;9.60;90.40;;;;;;5072254;28;20439;-71
2023/04/03 14:03:41;;;;;;;5.00;2.47;;;10.10;90.40;;;;;;5054430;28;20429;-70
2023/04/03 14:06:10;;;;;;;2.83;2.53;;;10.00;90.30;;;;;;5072701;28;20918;-70
2023/04/03 14:08:36;;;;;;;3.40;3.00;;;10.20;89.70;;;;;;5071881;28;20427;-71
2023/04/03 14:11:02;;;;;;;2.57;2.30;;;9.80;90.30;;;;;;5070780;28;20416;-70
2023/04/03 14:13:30;;;;;;;3.17;2.50;;;9.60;90.70;;;;;;5070192;28;20203;-71
2023/04/03 14:15:56;;;;;;;2.67;2.47;;;9.40;91.00;;;;;;5072587;28;20988;-70
2023/04/03 14:18:21;;;;;;;5.37;3.80;;;9.20;91.70;;;;;;5053727;28;20408;-71
2023/04/03 14:20:48;;;;;;;4.73;3.00;;;9.10;91.70;;;;;;5071565;28;20531;-71
2023/04/03 14:23:14;;;;;;;5.20;2.93;;;9.00;91.90;;;;;;5054150;28;20189;-70
2023/04/03 14:25:40;;;;;;;2.83;2.43;;;8.80;91.90;;;;;;5071567;28;20906;-71
2023/04/03 14:28:19;;;;;;;4.60;3.10;;;8.70;91.80;;;;;;5071706;28;20161;-70
2023/04/03 14:30:45;;;;;;;2.53;2.33;;;8.50;92.20;;;;;;5053578;28;20403;-71
2023/04/03 14:33:18;;;;;;;5.03;3.53;;;8.70;92.40;;;;;;5071542;28;20423;-71
2023/04/03 14:35:44;;;;;;;5.10;2.87;;;8.80;92.30;;;;;;5071942;28;20407;-71
2023/04/03 14:38:31;;;;;;;3.17;2.30;;;9.10;92.40;;;;;;5053904;28;20415;-71